createdAt,value
2023-02-04T00:00:07.832Z,6.39
2023-02-04T00:02:35.473Z,6.42
2023-02-04T00:05:02.180Z,6.34
2023-02-04T00:07:28.895Z,6.26
2023-02-04T00:09:56.103Z,6.29
2023-02-04T00:12:22.922Z,6.37
2023-02-04T00:14:50.060Z,6.27
2023-02-04T00:17:17.210Z,6.23
2023-02-04T00:19:44.323Z,6.23
2023-02-04T00:22:11.443Z,6.20
2023-02-04T00:24:38.796Z,6.19
2023-02-04T00:27:06.887Z,6.18
2023-02-04T00:29:33.585Z,6.18
2023-02-04T00:32:00.761Z,6.18
2023-02-04T00:34:28.261Z,6.17
2023-02-04T00:36:55.255Z,6.23
2023-02-04T00:39:22.316Z,6.18
2023-02-04T00:41:48.988Z,6.21
2023-02-04T00:44:16.068Z,6.20
2023-02-04T00:46:43.418Z,6.16
2023-02-04T00:49:11.388Z,6.14
2023-02-04T00:51:40.580Z,6.15
2023-02-04T00:54:08.064Z,6.09
2023-02-04T00:56:35.498Z,6.10
2023-02-04T00:59:02.575Z,6.09
2023-02-04T01:01:29.626Z,6.11
2023-02-04T01:03:57.138Z,6.08
2023-02-04T01:06:24.342Z,6.10
2023-02-04T01:08:53.806Z,6.14
2023-02-04T01:11:21.034Z,6.11
2023-02-04T01:13:48.249Z,6.13
2023-02-04T01:16:14.886Z,6.12
2023-02-04T01:18:42.310Z,6.09
2023-02-04T01:21:08.975Z,5.98
2023-02-04T01:23:36.772Z,6.13
2023-02-04T01:26:04.231Z,6.10
2023-02-04T01:28:31.318Z,6.13
2023-02-04T01:30:57.922Z,6.11
2023-02-04T01:33:25.140Z,6.09
2023-02-04T01:35:51.783Z,5.98
2023-02-04T01:38:19.030Z,6.03
2023-02-04T01:40:46.116Z,6.07
2023-02-04T01:43:12.910Z,5.99
2023-02-04T01:45:40.174Z,5.99
2023-02-04T01:48:10.492Z,5.95
2023-02-04T01:50:37.697Z,5.89
2023-02-04T01:53:05.033Z,5.87
2023-02-04T01:55:33.981Z,5.91
2023-02-04T01:58:01.344Z,5.94
2023-02-04T02:00:31.430Z,5.71
2023-02-04T02:02:59.597Z,5.91
2023-02-04T02:05:46.572Z,5.90
2023-02-04T02:08:14.764Z,5.92
2023-02-04T02:10:44.655Z,5.84
2023-02-04T02:13:14.659Z,5.91
2023-02-04T02:15:42.157Z,5.87
2023-02-04T02:18:09.662Z,5.86
2023-02-04T02:20:37.185Z,5.87
2023-02-04T02:23:04.352Z,5.87
2023-02-04T02:25:31.625Z,5.87
2023-02-04T02:28:00.991Z,5.77
2023-02-04T02:30:29.587Z,5.86
2023-02-04T02:32:57.870Z,5.78
2023-02-04T02:35:24.984Z,5.81
2023-02-04T02:37:51.736Z,5.76
2023-02-04T02:40:18.784Z,5.72
2023-02-04T02:42:50.851Z,5.70
2023-02-04T02:45:27.222Z,5.71
2023-02-04T02:47:56.256Z,5.70
2023-02-04T02:50:26.011Z,5.69
2023-02-04T02:52:53.618Z,5.61
2023-02-04T02:55:24.423Z,5.57
2023-02-04T02:57:53.167Z,5.50
2023-02-04T03:00:30.734Z,5.48
2023-02-04T03:03:12.531Z,5.43
2023-02-04T03:05:43.800Z,5.27
2023-02-04T03:08:12.993Z,5.30
2023-02-04T03:10:40.448Z,5.31
2023-02-04T03:13:07.753Z,5.20
2023-02-04T03:15:35.114Z,5.19
2023-02-04T03:18:02.475Z,5.19
2023-02-04T03:20:31.508Z,5.09
2023-02-04T03:22:59.105Z,5.08
2023-02-04T03:25:28.909Z,5.00
2023-02-04T03:27:58.500Z,4.94
2023-02-04T03:30:26.997Z,4.91
2023-02-04T03:32:54.486Z,4.94
2023-02-04T03:35:21.887Z,4.85
2023-02-04T03:37:48.957Z,4.74
2023-02-04T03:40:15.832Z,4.71
2023-02-04T03:42:45.306Z,4.63
2023-02-04T03:45:12.710Z,4.58
2023-02-04T03:47:39.845Z,4.61
2023-02-04T03:50:07.748Z,4.54
2023-02-04T03:52:34.854Z,4.65
2023-02-04T03:55:01.424Z,4.79
2023-02-04T03:57:27.996Z,4.76
2023-02-04T03:59:54.572Z,4.81
2023-02-04T04:02:21.740Z,4.95
2023-02-04T04:04:48.962Z,5.01
2023-02-04T04:07:15.538Z,5.13
2023-02-04T04:09:42.729Z,5.22
2023-02-04T04:12:09.294Z,5.30
2023-02-04T04:14:36.427Z,5.31
2023-02-04T04:17:03.539Z,5.25
2023-02-04T04:19:32.426Z,5.40
2023-02-04T04:21:59.543Z,5.43
2023-02-04T04:24:27.238Z,5.47
2023-02-04T04:26:54.532Z,5.46
2023-02-04T04:29:21.611Z,5.50
2023-02-04T04:31:48.271Z,5.54
2023-02-04T04:34:15.420Z,5.61
2023-02-04T04:36:42.518Z,5.65
2023-02-04T04:39:10.664Z,5.66
2023-02-04T04:41:38.154Z,5.68
2023-02-04T04:44:05.306Z,5.63
2023-02-04T04:46:32.434Z,5.62
2023-02-04T04:48:59.557Z,5.65
2023-02-04T04:51:26.129Z,5.57
2023-02-04T04:53:53.232Z,5.63
2023-02-04T04:56:20.286Z,5.68
2023-02-04T04:58:47.397Z,5.64
2023-02-04T05:01:14.588Z,5.56
2023-02-04T05:03:41.183Z,5.59
2023-02-04T05:06:09.135Z,5.44
2023-02-04T05:08:35.977Z,5.54
2023-02-04T05:11:03.676Z,5.47
2023-02-04T05:13:30.579Z,5.29
2023-02-04T05:15:57.726Z,5.25
2023-02-04T05:18:24.641Z,5.13
2023-02-04T05:20:51.704Z,5.04
2023-02-04T05:23:18.778Z,5.04
2023-02-04T05:25:45.443Z,4.97
2023-02-04T05:28:12.090Z,4.88
2023-02-04T05:30:39.200Z,4.86
2023-02-04T05:33:05.762Z,4.76
2023-02-04T05:35:32.798Z,4.70
2023-02-04T05:37:59.373Z,4.63
2023-02-04T05:40:26.437Z,4.67
2023-02-04T05:42:53.525Z,4.68
2023-02-04T05:45:20.564Z,4.72
2023-02-04T05:47:47.243Z,4.67
2023-02-04T05:50:14.419Z,4.69
2023-02-04T05:52:41.964Z,4.64
2023-02-04T05:55:11.832Z,4.75
2023-02-04T05:57:39.473Z,4.76
2023-02-04T06:00:06.789Z,4.82
2023-02-04T06:02:33.826Z,4.83
2023-02-04T06:05:00.938Z,4.85
2023-02-04T06:07:27.957Z,4.81
2023-02-04T06:09:55.008Z,4.88
2023-02-04T06:12:21.530Z,4.84
2023-02-04T06:14:48.656Z,4.87
2023-02-04T06:17:15.268Z,4.90
2023-02-04T06:19:42.400Z,4.89
2023-02-04T06:22:09.537Z,4.96
2023-02-04T06:24:36.864Z,4.90
2023-02-04T06:27:03.697Z,4.88
2023-02-04T06:29:30.246Z,4.96
2023-02-04T06:31:57.389Z,4.99
2023-02-04T06:34:24.552Z,4.98
2023-02-04T06:36:51.617Z,4.95
2023-02-04T06:39:18.698Z,4.97
2023-02-04T06:41:45.267Z,4.92
2023-02-04T06:44:12.340Z,4.88
2023-02-04T06:46:39.384Z,4.89
2023-02-04T06:49:05.946Z,4.95
2023-02-04T06:51:33.025Z,4.87
2023-02-04T06:54:00.179Z,4.88
2023-02-04T06:56:29.336Z,4.85
2023-02-04T06:58:56.363Z,4.84
2023-02-04T07:01:23.532Z,4.83
2023-02-04T07:03:50.798Z,4.82
2023-02-04T07:06:17.338Z,4.81
2023-02-04T07:08:44.429Z,4.78
2023-02-04T07:11:11.492Z,4.67
2023-02-04T07:13:38.559Z,4.66
2023-02-04T07:16:06.301Z,4.69
2023-02-04T07:18:33.889Z,4.66
2023-02-04T07:21:00.954Z,4.65
2023-02-04T07:23:28.629Z,4.66
2023-02-04T07:25:57.447Z,4.53
2023-02-04T07:28:25.507Z,4.68
2023-02-04T07:30:52.780Z,4.72
2023-02-04T07:33:19.960Z,4.65
2023-02-04T07:35:48.704Z,4.72
2023-02-04T07:38:15.326Z,4.76
2023-02-04T07:40:43.940Z,4.82
2023-02-04T07:43:14.115Z,4.65
2023-02-04T07:45:41.101Z,4.89
2023-02-04T07:48:08.189Z,4.96
2023-02-04T07:50:35.441Z,4.96
2023-02-04T07:53:02.743Z,4.94
2023-02-04T07:55:29.837Z,4.89
2023-02-04T07:57:56.471Z,5.09
2023-02-04T08:00:23.818Z,5.10
2023-02-04T08:02:50.527Z,5.11
2023-02-04T08:05:17.924Z,5.18
2023-02-04T08:07:45.115Z,5.28
2023-02-04T08:10:12.381Z,5.33
2023-02-04T08:12:38.985Z,5.37
2023-02-04T08:15:07.789Z,5.41
2023-02-04T08:17:35.434Z,5.43
2023-02-04T08:20:02.113Z,5.49
2023-02-04T08:22:29.167Z,5.46
2023-02-04T08:24:55.764Z,5.53
2023-02-04T08:27:22.871Z,5.56
2023-02-04T08:29:50.011Z,5.61
2023-02-04T08:32:17.053Z,5.56
2023-02-04T08:34:44.079Z,5.64
2023-02-04T08:37:10.693Z,5.52
2023-02-04T08:39:38.492Z,5.71
2023-02-04T08:42:05.538Z,5.75
2023-02-04T08:44:32.780Z,5.83
2023-02-04T08:46:59.961Z,5.85
2023-02-04T08:49:27.083Z,5.79
2023-02-04T08:51:54.096Z,5.94
2023-02-04T08:54:21.256Z,5.92
2023-02-04T08:56:48.388Z,5.93
2023-02-04T08:59:15.422Z,6.02
2023-02-04T09:01:42.604Z,6.00
2023-02-04T09:04:09.661Z,6.11
2023-02-04T09:06:36.248Z,6.13
2023-02-04T09:09:02.924Z,6.19
2023-02-04T09:11:30.109Z,6.15
2023-02-04T09:13:57.435Z,6.30
2023-02-04T09:16:24.305Z,6.30
2023-02-04T09:18:50.935Z,6.36
2023-02-04T09:21:17.897Z,6.38
2023-02-04T09:23:46.630Z,6.44
2023-02-04T09:26:14.057Z,6.48
2023-02-04T09:28:41.194Z,6.52
2023-02-04T09:31:07.849Z,6.56
2023-02-04T09:33:35.551Z,6.62
2023-02-04T09:36:02.899Z,6.61
2023-02-04T09:38:30.270Z,6.72
2023-02-04T09:41:07.297Z,6.81
2023-02-04T09:43:38.608Z,6.88
2023-02-04T09:46:05.872Z,7.02
2023-02-04T09:48:32.944Z,7.04
2023-02-04T09:51:06.686Z,7.05
2023-02-04T09:53:36.860Z,7.27
2023-02-04T09:56:03.756Z,7.28
2023-02-04T09:58:34.584Z,7.31
2023-02-04T10:01:28.198Z,7.33
2023-02-04T10:03:57.808Z,7.24
2023-02-04T10:06:24.552Z,7.00
2023-02-04T10:08:52.117Z,7.07
2023-02-04T10:11:23.942Z,6.90
2023-02-04T10:13:54.191Z,7.04
2023-02-04T10:16:29.773Z,7.13
2023-02-04T10:19:00.544Z,7.32
2023-02-04T10:21:32.287Z,7.43
2023-02-04T10:24:02.664Z,7.45
2023-02-04T10:26:31.573Z,7.62
2023-02-04T10:29:13.000Z,7.64
2023-02-04T10:31:42.480Z,7.73
2023-02-04T10:34:20.644Z,7.74
2023-02-04T10:36:51.682Z,7.84
2023-02-04T10:39:21.377Z,7.97
2023-02-04T10:41:59.802Z,8.06
2023-02-04T10:44:31.590Z,8.02
2023-02-04T10:47:06.499Z,8.10
2023-02-04T10:49:33.540Z,8.04
2023-02-04T10:52:01.217Z,8.10
2023-02-04T10:54:38.391Z,8.19
2023-02-04T10:57:09.775Z,8.23
2023-02-04T10:59:36.894Z,8.09
2023-02-04T11:02:26.519Z,8.16
2023-02-04T11:04:53.474Z,8.11
2023-02-04T11:07:21.706Z,7.99
2023-02-04T11:09:48.794Z,7.85
2023-02-04T11:12:37.232Z,8.03
2023-02-04T11:15:04.931Z,7.97
2023-02-04T11:17:33.482Z,7.95
2023-02-04T11:20:00.894Z,8.09
2023-02-04T11:22:48.749Z,8.06
2023-02-04T11:26:01.284Z,7.90
2023-02-04T11:28:28.523Z,7.93
2023-02-04T11:31:03.994Z,7.78
2023-02-04T11:33:42.246Z,7.82
2023-02-04T11:36:13.995Z,7.81
2023-02-04T11:38:49.032Z,7.86
2023-02-04T11:41:25.033Z,7.87
2023-02-04T11:43:52.045Z,7.86
2023-02-04T11:46:20.265Z,7.76
2023-02-04T11:48:47.053Z,7.87
2023-02-04T11:51:19.078Z,7.96
2023-02-04T11:53:51.894Z,7.89
2023-02-04T11:56:23.521Z,7.95
2023-02-04T11:58:51.205Z,7.82
2023-02-04T12:01:25.126Z,7.87
2023-02-04T12:04:04.267Z,7.94
2023-02-04T12:06:33.834Z,7.95
2023-02-04T12:09:16.650Z,7.81
2023-02-04T12:12:07.512Z,8.02
2023-02-04T12:14:37.656Z,7.98
2023-02-04T12:17:20.875Z,7.94
2023-02-04T12:19:48.035Z,7.78
2023-02-04T12:22:15.708Z,7.65
2023-02-04T12:24:44.057Z,7.68
2023-02-04T12:27:13.821Z,7.71
2023-02-04T12:29:43.648Z,7.73
2023-02-04T12:32:10.325Z,7.84
2023-02-04T12:34:37.626Z,8.02
2023-02-04T12:37:04.202Z,8.00
2023-02-04T12:39:32.150Z,8.19
2023-02-04T12:41:59.078Z,8.23
2023-02-04T12:44:28.845Z,8.23
2023-02-04T12:46:56.059Z,7.98
2023-02-04T12:49:24.393Z,8.23
2023-02-04T12:51:53.793Z,8.05
2023-02-04T12:54:20.897Z,8.09
2023-02-04T12:56:49.405Z,7.95
2023-02-04T12:59:16.479Z,8.12
2023-02-04T13:01:43.169Z,8.24
2023-02-04T13:04:10.652Z,8.31
2023-02-04T13:06:37.513Z,8.44
2023-02-04T13:09:04.698Z,8.34
2023-02-04T13:11:31.443Z,8.33
2023-02-04T13:13:58.684Z,8.34
2023-02-04T13:16:26.049Z,8.26
2023-02-04T13:18:53.185Z,8.34
2023-02-04T13:21:23.579Z,8.29
2023-02-04T13:23:50.192Z,8.39
2023-02-04T13:26:16.761Z,8.29
2023-02-04T13:28:43.369Z,8.10
2023-02-04T13:31:10.419Z,8.22
2023-02-04T13:33:37.510Z,8.27
2023-02-04T13:36:04.467Z,8.39
2023-02-04T13:38:31.171Z,8.39
2023-02-04T13:40:57.713Z,8.39
2023-02-04T13:43:24.955Z,8.31
2023-02-04T13:45:52.408Z,8.40
2023-02-04T13:48:21.002Z,8.43
2023-02-04T13:50:48.057Z,8.39
2023-02-04T13:53:14.755Z,8.37
2023-02-04T13:55:41.301Z,8.28
2023-02-04T13:58:08.460Z,8.21
2023-02-04T14:00:35.306Z,8.27
2023-02-04T14:03:02.534Z,8.31
2023-02-04T14:05:29.197Z,8.32
2023-02-04T14:07:56.325Z,8.19
2023-02-04T14:10:24.957Z,8.22
2023-02-04T14:12:52.009Z,8.21
2023-02-04T14:15:19.224Z,8.21
2023-02-04T14:17:46.318Z,8.19
2023-02-04T14:20:13.582Z,8.21
2023-02-04T14:22:40.173Z,8.30
2023-02-04T14:25:07.219Z,8.36
2023-02-04T14:27:35.456Z,8.45
2023-02-04T14:30:02.356Z,8.60
2023-02-04T14:32:29.496Z,8.57
2023-02-04T14:34:56.407Z,8.73
2023-02-04T14:37:25.686Z,8.66
2023-02-04T14:39:52.302Z,8.58
2023-02-04T14:42:19.398Z,8.54
2023-02-04T14:44:46.016Z,8.56
2023-02-04T14:47:13.004Z,8.50
2023-02-04T14:49:39.633Z,8.54
2023-02-04T14:52:06.201Z,8.51
2023-02-04T14:54:32.792Z,8.35
2023-02-04T14:56:59.964Z,8.42
2023-02-04T14:59:27.029Z,8.43
2023-02-04T15:01:53.576Z,8.24
2023-02-04T15:04:20.612Z,8.30
2023-02-04T15:06:47.740Z,8.29
2023-02-04T15:09:14.298Z,8.28
2023-02-04T15:11:41.338Z,8.34
2023-02-04T15:14:08.602Z,8.30
2023-02-04T15:16:35.414Z,8.33
2023-02-04T15:19:02.076Z,8.35
2023-02-04T15:21:28.801Z,8.28
2023-02-04T15:23:55.889Z,8.27
2023-02-04T15:26:23.094Z,8.09
2023-02-04T15:28:49.856Z,8.11
2023-02-04T15:31:16.842Z,8.15
2023-02-04T15:33:43.672Z,8.04
2023-02-04T15:36:10.246Z,8.01
2023-02-04T15:38:36.872Z,7.89
2023-02-04T15:41:04.587Z,7.96
2023-02-04T15:43:31.210Z,7.86
2023-02-04T15:45:58.081Z,7.80
2023-02-04T15:48:24.660Z,7.71
2023-02-04T15:50:51.353Z,7.64
2023-02-04T15:53:18.015Z,7.62
2023-02-04T15:55:44.792Z,7.47
2023-02-04T15:58:11.386Z,7.40
2023-02-04T16:00:38.300Z,7.32
2023-02-04T16:03:05.439Z,7.35
2023-02-04T16:05:32.485Z,7.30
2023-02-04T16:07:59.727Z,7.22
2023-02-04T16:10:26.897Z,7.20
2023-02-04T16:12:55.029Z,7.27
2023-02-04T16:15:21.568Z,7.26
2023-02-04T16:17:49.008Z,7.22
2023-02-04T16:20:15.837Z,7.27
2023-02-04T16:22:42.434Z,7.20
2023-02-04T16:25:09.412Z,7.22
2023-02-04T16:27:36.223Z,7.13
2023-02-04T16:30:03.651Z,7.11
2023-02-04T16:32:30.197Z,7.00
2023-02-04T16:34:56.906Z,7.04
2023-02-04T16:37:24.047Z,6.98
2023-02-04T16:39:51.806Z,6.97
2023-02-04T16:42:18.447Z,6.97
2023-02-04T16:44:45.054Z,6.95
2023-02-04T16:47:11.804Z,6.93
2023-02-04T16:49:38.327Z,6.75
2023-02-04T16:52:06.083Z,6.82
2023-02-04T16:54:33.424Z,6.77
2023-02-04T16:57:00.754Z,6.71
2023-02-04T16:59:31.972Z,6.81
2023-02-04T17:02:00.830Z,6.77
2023-02-04T17:04:28.243Z,6.77
2023-02-04T17:06:54.933Z,6.72
2023-02-04T17:09:21.612Z,6.71
2023-02-04T17:11:48.274Z,6.72
2023-02-04T17:14:18.760Z,6.74
2023-02-04T17:16:47.205Z,6.73
2023-02-04T17:19:17.532Z,6.70
2023-02-04T17:21:45.107Z,6.69
2023-02-04T17:24:11.715Z,6.47
2023-02-04T17:26:39.720Z,6.67
2023-02-04T17:29:08.228Z,6.65
2023-02-04T17:31:35.127Z,6.66
2023-02-04T17:34:03.199Z,6.57
2023-02-04T17:36:30.523Z,6.66
2023-02-04T17:38:57.939Z,6.66
2023-02-04T17:41:24.643Z,6.63
2023-02-04T17:43:51.787Z,6.64
2023-02-04T17:46:18.452Z,6.64
2023-02-04T17:48:45.774Z,6.66
2023-02-04T17:51:12.424Z,6.64
2023-02-04T17:53:40.532Z,6.62
2023-02-04T17:56:11.422Z,6.57
2023-02-04T17:58:38.693Z,6.58
2023-02-04T18:01:16.118Z,6.57
2023-02-04T18:03:43.980Z,6.49
2023-02-04T18:06:20.032Z,6.56
2023-02-04T18:08:47.416Z,6.50
2023-02-04T18:11:39.077Z,6.48
2023-02-04T18:14:24.336Z,6.52
2023-02-04T18:16:53.961Z,6.46
2023-02-04T18:19:35.206Z,6.50
2023-02-04T18:22:13.559Z,6.46
2023-02-04T18:24:45.492Z,6.48
2023-02-04T18:27:20.096Z,6.43
2023-02-04T18:29:49.463Z,6.50
2023-02-04T18:32:40.764Z,6.50
2023-02-04T18:35:44.360Z,6.52
2023-02-04T18:38:21.762Z,6.51
2023-02-04T18:40:49.420Z,6.48
2023-02-04T18:43:25.164Z,6.50
2023-02-04T18:45:53.739Z,6.46
2023-02-04T18:48:20.709Z,6.52
2023-02-04T18:50:52.732Z,6.51
2023-02-04T18:53:24.840Z,6.47
2023-02-04T18:55:54.289Z,6.48
2023-02-04T18:58:41.663Z,6.47
2023-02-04T19:01:11.597Z,6.44
2023-02-04T19:03:52.249Z,6.39
2023-02-04T19:06:39.560Z,6.42
2023-02-04T19:09:18.072Z,6.40
2023-02-04T19:11:54.125Z,6.40
2023-02-04T19:14:28.339Z,6.39
2023-02-04T19:17:02.728Z,6.37
2023-02-04T19:19:32.240Z,6.35
2023-02-04T19:21:58.785Z,6.27
2023-02-04T19:24:29.479Z,6.26
2023-02-04T19:27:01.577Z,6.29
2023-02-04T19:29:38.082Z,6.27
2023-02-04T19:32:23.936Z,6.24
2023-02-04T19:34:52.185Z,6.22
2023-02-04T19:37:24.895Z,6.18
2023-02-04T19:39:51.878Z,5.98
2023-02-04T19:42:37.892Z,6.19
2023-02-04T19:45:25.548Z,6.19
2023-02-04T19:47:57.229Z,6.21
2023-02-04T19:50:27.320Z,6.24
2023-02-04T19:53:00.192Z,6.28
2023-02-04T19:55:26.734Z,6.27
2023-02-04T19:58:20.028Z,6.28
2023-02-04T20:01:09.997Z,6.19
2023-02-04T20:03:39.336Z,6.21
2023-02-04T20:06:26.684Z,6.20
2023-02-04T20:09:11.531Z,6.20
2023-02-04T20:11:43.422Z,6.22
2023-02-04T20:14:16.143Z,6.23
2023-02-04T20:16:52.768Z,6.20
2023-02-04T20:19:26.481Z,6.24
2023-02-04T20:22:25.811Z,6.24
2023-02-04T20:24:57.148Z,6.23
2023-02-04T20:27:37.512Z,6.24
2023-02-04T20:30:11.918Z,6.26
2023-02-04T20:32:45.592Z,6.24
2023-02-04T20:35:12.839Z,6.23
2023-02-04T20:37:41.668Z,6.18
2023-02-04T20:40:20.920Z,6.22
2023-02-04T20:42:52.683Z,6.26
2023-02-04T20:45:41.586Z,6.25
2023-02-04T20:48:17.746Z,6.25
2023-02-04T20:50:54.145Z,6.24
2023-02-04T20:53:25.752Z,6.22
2023-02-04T20:56:11.318Z,6.15
2023-02-04T20:58:41.942Z,6.22
2023-02-04T21:01:29.622Z,6.19
2023-02-04T21:03:58.665Z,6.20
2023-02-04T21:06:29.757Z,6.12
2023-02-04T21:08:59.292Z,6.13
2023-02-04T21:11:26.944Z,6.18
2023-02-04T21:13:54.872Z,6.18
2023-02-04T21:16:22.087Z,6.15
2023-02-04T21:18:48.827Z,6.12
2023-02-04T21:21:15.463Z,6.11
2023-02-04T21:23:42.764Z,6.08
2023-02-04T21:26:09.349Z,6.06
2023-02-04T21:28:36.521Z,6.10
2023-02-04T21:31:03.553Z,5.94
2023-02-04T21:33:30.220Z,6.05
2023-02-04T21:35:57.136Z,6.07
2023-02-04T21:38:23.755Z,6.01
2023-02-04T21:40:50.590Z,6.06
2023-02-04T21:43:17.668Z,6.06
2023-02-04T21:45:44.727Z,6.03
2023-02-04T21:48:11.570Z,5.89
2023-02-04T21:50:41.858Z,5.89
2023-02-04T21:53:09.626Z,5.99
2023-02-04T21:55:37.283Z,5.97
2023-02-04T21:58:05.374Z,5.94
2023-02-04T22:00:32.944Z,5.99
2023-02-04T22:02:59.593Z,5.96
2023-02-04T22:05:26.768Z,5.99
2023-02-04T22:07:53.520Z,6.00
2023-02-04T22:10:24.403Z,6.03
2023-02-04T22:12:52.172Z,6.00
2023-02-04T22:15:21.111Z,5.99
2023-02-04T22:17:48.389Z,6.08
2023-02-04T22:20:20.359Z,6.07
2023-02-04T22:22:47.828Z,6.09
2023-02-04T22:25:18.303Z,6.11
2023-02-04T22:27:45.434Z,6.09
2023-02-04T22:30:13.864Z,6.14
2023-02-04T22:32:40.716Z,6.16
2023-02-04T22:35:10.174Z,6.09
2023-02-04T22:37:38.913Z,6.20
2023-02-04T22:40:06.779Z,6.20
2023-02-04T22:42:33.852Z,6.20
2023-02-04T22:45:03.930Z,6.23
2023-02-04T22:47:31.607Z,6.20
2023-02-04T22:49:58.692Z,6.25
2023-02-04T22:52:25.360Z,6.19
2023-02-04T22:54:53.082Z,6.06
2023-02-04T22:57:19.714Z,6.22
2023-02-04T22:59:47.143Z,6.22
2023-02-04T23:02:16.047Z,6.05
2023-02-04T23:04:44.102Z,6.12
2023-02-04T23:07:12.273Z,6.23
2023-02-04T23:09:39.665Z,6.29
2023-02-04T23:12:15.830Z,6.24
2023-02-04T23:14:48.030Z,6.33
2023-02-04T23:17:16.735Z,6.35
2023-02-04T23:19:44.021Z,6.33
2023-02-04T23:22:13.488Z,6.39
2023-02-04T23:24:41.252Z,6.36
2023-02-04T23:27:11.089Z,6.43
2023-02-04T23:29:40.087Z,6.46
2023-02-04T23:32:07.345Z,6.43
2023-02-04T23:34:34.938Z,6.44
2023-02-04T23:37:02.011Z,6.38
2023-02-04T23:39:28.718Z,6.41
2023-02-04T23:41:58.830Z,6.39
2023-02-04T23:44:25.979Z,6.22
2023-02-04T23:46:52.840Z,6.36
2023-02-04T23:49:19.515Z,6.35
2023-02-04T23:51:46.218Z,6.31
2023-02-04T23:54:13.489Z,6.27
2023-02-04T23:56:40.723Z,6.33
2023-02-04T23:59:08.099Z,6.34
